createdAt,value
2023-01-19T00:00:51.996Z,39.02
2023-01-19T00:03:18.838Z,38.47
2023-01-19T00:05:46.453Z,38.59
2023-01-19T00:08:15.917Z,38.65
2023-01-19T00:10:44.781Z,38.95
2023-01-19T00:13:11.488Z,38.67
2023-01-19T00:15:38.458Z,38.84
2023-01-19T00:18:05.376Z,38.71
2023-01-19T00:20:32.873Z,38.63
2023-01-19T00:22:59.990Z,38.96
2023-01-19T00:25:26.960Z,38.36
2023-01-19T00:27:53.543Z,38.41
2023-01-19T00:30:20.271Z,38.82
2023-01-19T00:32:46.881Z,38.79
2023-01-19T00:35:13.477Z,38.50
2023-01-19T00:37:40.045Z,38.80
2023-01-19T00:40:07.520Z,38.71
2023-01-19T00:42:45.857Z,38.88
2023-01-19T00:45:15.093Z,38.43
2023-01-19T00:47:42.373Z,38.41
2023-01-19T00:50:13.002Z,38.49
2023-01-19T00:52:40.858Z,38.94
2023-01-19T00:55:08.661Z,38.39
2023-01-19T00:57:35.290Z,38.45
2023-01-19T01:00:02.109Z,38.61
2023-01-19T01:02:29.321Z,38.58
2023-01-19T01:04:56.713Z,38.55
2023-01-19T01:07:24.786Z,38.75
2023-01-19T01:09:51.491Z,38.57
2023-01-19T01:12:18.207Z,38.55
2023-01-19T01:14:44.952Z,38.51
2023-01-19T01:17:14.261Z,38.07
2023-01-19T01:19:41.463Z,38.38
2023-01-19T01:22:09.730Z,38.36
2023-01-19T01:24:36.452Z,37.97
2023-01-19T01:27:03.923Z,38.00
2023-01-19T01:29:30.667Z,37.96
2023-01-19T01:31:57.363Z,38.23
2023-01-19T01:34:23.992Z,37.84
2023-01-19T01:36:51.408Z,38.06
2023-01-19T01:39:17.945Z,37.68
2023-01-19T01:41:44.591Z,37.87
2023-01-19T01:44:52.930Z,38.20
2023-01-19T01:47:33.452Z,38.09
2023-01-19T01:50:17.138Z,37.94
2023-01-19T01:53:07.149Z,37.68
2023-01-19T01:55:36.551Z,38.06
2023-01-19T01:58:04.786Z,37.83
2023-01-19T02:00:50.824Z,38.07
2023-01-19T02:03:17.705Z,37.92
2023-01-19T02:05:45.857Z,38.25
2023-01-19T02:08:44.558Z,38.19
2023-01-19T02:11:29.740Z,38.34
2023-01-19T02:13:56.422Z,38.04
2023-01-19T02:16:23.537Z,38.34
2023-01-19T02:18:50.419Z,38.42
2023-01-19T02:21:22.649Z,38.65
2023-01-19T02:23:54.057Z,38.06
2023-01-19T02:26:25.994Z,38.38
2023-01-19T02:28:57.512Z,38.46
2023-01-19T02:31:24.979Z,38.17
2023-01-19T02:33:52.747Z,38.43
2023-01-19T02:36:23.369Z,38.67
2023-01-19T02:38:51.043Z,38.72
2023-01-19T02:41:20.472Z,38.60
2023-01-19T02:43:49.062Z,38.40
2023-01-19T02:46:16.117Z,38.75
2023-01-19T02:48:42.858Z,38.54
2023-01-19T02:51:14.540Z,38.44
2023-01-19T02:54:20.189Z,38.35
2023-01-19T02:56:55.750Z,38.67
2023-01-19T02:59:31.345Z,38.35
2023-01-19T03:02:25.467Z,38.37
2023-01-19T03:05:29.653Z,38.57
2023-01-19T03:08:14.713Z,38.38
2023-01-19T03:10:46.638Z,38.38
2023-01-19T03:13:19.956Z,38.72
2023-01-19T03:15:51.167Z,38.62
2023-01-19T03:18:20.888Z,38.34
2023-01-19T03:20:49.618Z,38.06
2023-01-19T03:23:17.236Z,38.25
2023-01-19T03:25:47.470Z,38.40
2023-01-19T03:28:15.082Z,38.35
2023-01-19T03:30:48.234Z,38.20
2023-01-19T03:33:18.337Z,37.86
2023-01-19T03:35:49.089Z,38.08
2023-01-19T03:38:17.247Z,38.17
2023-01-19T03:40:45.159Z,38.36
2023-01-19T03:43:13.297Z,38.10
2023-01-19T03:45:40.225Z,38.13
2023-01-19T03:48:07.244Z,37.79
2023-01-19T03:50:33.897Z,38.16
2023-01-19T03:53:12.998Z,38.19
2023-01-19T03:55:42.624Z,38.03
2023-01-19T03:58:09.877Z,37.57
2023-01-19T04:00:36.916Z,37.73
2023-01-19T04:03:05.175Z,38.03
2023-01-19T04:05:32.351Z,37.68
2023-01-19T04:07:59.358Z,37.71
2023-01-19T04:10:26.045Z,37.75
2023-01-19T04:13:01.299Z,37.49
2023-01-19T04:15:29.450Z,37.52
2023-01-19T04:18:00.421Z,37.51
2023-01-19T04:20:28.257Z,37.61
2023-01-19T04:22:56.181Z,37.55
2023-01-19T04:25:22.859Z,37.46
2023-01-19T04:27:52.950Z,37.28
2023-01-19T04:30:20.016Z,37.15
2023-01-19T04:32:46.809Z,37.50
2023-01-19T04:35:13.401Z,37.13
2023-01-19T04:37:40.169Z,37.16
2023-01-19T04:40:07.539Z,37.01
2023-01-19T04:42:34.149Z,37.17
2023-01-19T04:45:00.750Z,37.17
2023-01-19T04:47:27.442Z,37.02
2023-01-19T04:49:53.990Z,37.09
2023-01-19T04:52:20.518Z,37.10
2023-01-19T04:54:47.650Z,36.96
2023-01-19T04:57:14.251Z,36.89
2023-01-19T04:59:40.897Z,35.10
2023-01-19T05:02:07.571Z,31.98
2023-01-19T05:04:34.262Z,33.44
2023-01-19T05:07:00.842Z,33.28
2023-01-19T05:09:27.575Z,33.49
2023-01-19T05:11:54.132Z,33.65
2023-01-19T05:14:20.820Z,33.85
2023-01-19T05:16:47.339Z,34.05
2023-01-19T05:19:14.075Z,34.16
2023-01-19T05:21:41.139Z,34.29
2023-01-19T05:24:08.509Z,34.26
2023-01-19T05:26:35.183Z,34.26
2023-01-19T05:29:01.791Z,34.32
2023-01-19T05:31:28.539Z,34.42
2023-01-19T05:33:55.172Z,34.44
2023-01-19T05:36:21.688Z,34.20
2023-01-19T05:38:48.442Z,34.30
2023-01-19T05:41:15.166Z,34.51
2023-01-19T05:43:41.856Z,33.95
2023-01-19T05:46:08.488Z,34.39
2023-01-19T05:48:36.189Z,34.12
2023-01-19T05:51:02.720Z,34.06
2023-01-19T05:53:29.319Z,34.31
2023-01-19T05:56:05.088Z,34.20
2023-01-19T05:58:32.511Z,34.60
2023-01-19T06:01:02.987Z,34.19
2023-01-19T06:03:29.625Z,34.04
2023-01-19T06:05:57.925Z,34.14
2023-01-19T06:08:24.572Z,34.07
2023-01-19T06:10:51.904Z,33.97
2023-01-19T06:13:18.588Z,33.80
2023-01-19T06:15:45.225Z,33.58
2023-01-19T06:18:12.660Z,33.62
2023-01-19T06:20:39.442Z,33.75
2023-01-19T06:23:06.426Z,33.82
2023-01-19T06:25:33.085Z,33.85
2023-01-19T06:27:59.777Z,33.69
2023-01-19T06:30:26.988Z,33.59
2023-01-19T06:32:53.809Z,33.61
2023-01-19T06:35:20.857Z,33.53
2023-01-19T06:37:47.426Z,33.25
2023-01-19T06:40:14.599Z,33.23
2023-01-19T06:42:42.143Z,33.31
2023-01-19T06:45:10.043Z,33.50
2023-01-19T06:47:37.011Z,33.40
2023-01-19T06:50:03.697Z,33.52
2023-01-19T06:52:30.584Z,33.11
2023-01-19T06:54:57.394Z,33.42
2023-01-19T06:57:25.768Z,33.44
2023-01-19T06:59:52.572Z,33.63
2023-01-19T07:02:26.154Z,33.71
2023-01-19T07:04:55.033Z,33.78
2023-01-19T07:07:21.783Z,33.73
2023-01-19T07:09:48.704Z,33.63
2023-01-19T07:12:15.303Z,34.08
2023-01-19T07:14:42.406Z,33.88
2023-01-19T07:17:09.770Z,33.90
2023-01-19T07:19:36.566Z,33.80
2023-01-19T07:22:03.197Z,33.36
2023-01-19T07:24:30.718Z,33.20
2023-01-19T07:26:57.489Z,32.54
2023-01-19T07:29:25.449Z,33.09
2023-01-19T07:31:54.941Z,33.63
2023-01-19T07:34:21.602Z,33.75
2023-01-19T07:36:48.651Z,34.20
2023-01-19T07:39:15.267Z,34.07
2023-01-19T07:41:41.816Z,34.22
2023-01-19T07:44:08.782Z,34.37
2023-01-19T07:46:53.640Z,33.83
2023-01-19T07:49:39.446Z,34.25
2023-01-19T07:52:24.496Z,34.35
2023-01-19T07:55:09.799Z,34.07
2023-01-19T07:57:54.683Z,33.62
2023-01-19T08:00:39.975Z,33.92
2023-01-19T08:03:25.488Z,34.09
2023-01-19T08:06:24.196Z,34.22
2023-01-19T08:09:09.997Z,34.39
2023-01-19T08:11:55.199Z,34.53
2023-01-19T08:14:40.608Z,34.51
2023-01-19T08:17:25.548Z,34.71
2023-01-19T08:20:11.384Z,34.67
2023-01-19T08:23:00.205Z,34.79
2023-01-19T08:25:46.278Z,34.66
2023-01-19T08:28:31.376Z,34.78
2023-01-19T08:31:21.196Z,34.67
2023-01-19T08:34:08.611Z,34.89
2023-01-19T08:36:53.584Z,35.17
2023-01-19T08:39:38.653Z,35.12
2023-01-19T08:42:23.509Z,34.68
2023-01-19T08:45:09.401Z,34.83
2023-01-19T08:47:55.863Z,35.06
2023-01-19T08:50:41.157Z,35.08
2023-01-19T08:53:26.315Z,35.26
2023-01-19T08:56:12.568Z,34.90
2023-01-19T08:59:08.683Z,35.04
2023-01-19T09:01:54.327Z,35.19
2023-01-19T09:04:39.574Z,34.89
2023-01-19T09:07:24.846Z,34.87
2023-01-19T09:10:10.443Z,35.03
2023-01-19T09:12:55.458Z,35.11
2023-01-19T09:15:41.085Z,34.93
2023-01-19T09:18:26.176Z,35.33
2023-01-19T09:21:11.282Z,35.05
2023-01-19T09:23:57.666Z,35.04
2023-01-19T09:26:43.038Z,34.92
2023-01-19T09:29:28.433Z,35.25
2023-01-19T09:32:13.523Z,35.37
2023-01-19T09:34:58.485Z,35.23
2023-01-19T09:37:47.348Z,35.39
2023-01-19T09:40:32.657Z,35.26
2023-01-19T09:43:34.106Z,35.15
2023-01-19T09:46:20.393Z,35.40
2023-01-19T09:49:10.226Z,35.30
2023-01-19T09:51:55.137Z,35.52
2023-01-19T09:54:45.399Z,35.19
2023-01-19T09:57:32.150Z,35.21
2023-01-19T10:00:17.849Z,35.37
2023-01-19T10:03:16.420Z,35.36
2023-01-19T10:06:03.642Z,35.39
2023-01-19T10:08:53.956Z,35.21
2023-01-19T10:11:52.695Z,35.37
2023-01-19T10:14:40.924Z,35.22
2023-01-19T10:17:35.470Z,35.56
2023-01-19T10:20:23.052Z,35.56
2023-01-19T10:23:20.507Z,35.60
2023-01-19T10:26:07.092Z,35.29
2023-01-19T10:29:12.263Z,35.50
2023-01-19T10:32:21.197Z,35.59
2023-01-19T10:35:14.344Z,35.21
2023-01-19T10:38:01.298Z,35.47
2023-01-19T10:40:48.866Z,35.26
2023-01-19T10:43:33.996Z,35.37
2023-01-19T10:46:19.413Z,35.15
2023-01-19T10:49:04.783Z,35.19
2023-01-19T10:51:49.995Z,35.06
2023-01-19T10:54:36.310Z,35.15
2023-01-19T10:57:25.906Z,35.27
2023-01-19T11:00:29.111Z,35.63
2023-01-19T11:03:30.217Z,35.29
2023-01-19T11:06:21.265Z,35.26
2023-01-19T11:09:16.816Z,35.32
2023-01-19T11:12:02.145Z,35.00
2023-01-19T11:14:47.641Z,35.59
2023-01-19T11:17:32.854Z,35.07
2023-01-19T11:20:22.944Z,35.34
2023-01-19T11:23:16.619Z,35.42
2023-01-19T11:26:01.773Z,35.55
2023-01-19T11:28:47.857Z,35.46
2023-01-19T11:31:33.822Z,35.81
2023-01-19T11:34:32.765Z,35.75
2023-01-19T11:37:20.500Z,35.91
2023-01-19T11:40:06.062Z,35.72
2023-01-19T11:42:51.414Z,35.48
2023-01-19T11:45:36.831Z,35.62
2023-01-19T11:48:33.400Z,35.82
2023-01-19T11:51:18.862Z,35.93
2023-01-19T11:54:06.900Z,34.39
2023-01-19T11:56:52.201Z,35.16
2023-01-19T11:59:37.325Z,35.20
2023-01-19T12:02:24.437Z,35.38
2023-01-19T12:05:12.410Z,35.64
2023-01-19T12:07:58.413Z,35.63
2023-01-19T12:10:44.283Z,35.32
2023-01-19T12:13:30.259Z,35.27
2023-01-19T12:16:22.662Z,35.23
2023-01-19T12:19:11.264Z,35.30
2023-01-19T12:21:56.206Z,35.70
2023-01-19T12:24:42.316Z,35.73
2023-01-19T12:27:40.506Z,35.30
2023-01-19T12:30:26.748Z,35.47
2023-01-19T12:33:26.766Z,35.33
2023-01-19T12:36:38.696Z,35.49
2023-01-19T12:39:23.648Z,35.81
2023-01-19T12:42:12.796Z,35.33
2023-01-19T12:45:05.443Z,35.77
2023-01-19T12:47:54.082Z,35.83
2023-01-19T12:50:39.347Z,35.84
2023-01-19T12:53:26.454Z,35.90
2023-01-19T12:56:11.736Z,36.05
2023-01-19T12:58:56.806Z,35.63
2023-01-19T13:01:41.951Z,36.12
2023-01-19T13:04:30.354Z,36.04
2023-01-19T13:07:17.995Z,35.74
2023-01-19T13:10:23.116Z,35.69
2023-01-19T13:13:18.345Z,35.82
2023-01-19T13:16:18.875Z,36.05
2023-01-19T13:19:07.247Z,34.93
2023-01-19T13:21:54.126Z,35.14
2023-01-19T13:24:58.367Z,35.49
2023-01-19T13:27:43.529Z,35.59
2023-01-19T13:30:28.957Z,35.52
2023-01-19T13:33:21.729Z,34.31
2023-01-19T13:36:07.841Z,34.60
2023-01-19T13:38:52.893Z,35.11
2023-01-19T13:41:38.422Z,35.14
2023-01-19T13:44:27.612Z,35.08
2023-01-19T13:47:15.344Z,35.51
2023-01-19T13:50:00.717Z,35.37
2023-01-19T13:52:46.171Z,35.81
2023-01-19T13:55:31.061Z,35.31
2023-01-19T13:58:23.339Z,35.56
2023-01-19T14:01:19.932Z,35.74
2023-01-19T14:04:05.440Z,33.71
2023-01-19T14:06:54.162Z,33.83
2023-01-19T14:09:39.798Z,34.42
2023-01-19T14:12:16.132Z,34.97
2023-01-19T14:14:42.937Z,35.41
2023-01-19T14:17:21.098Z,35.11
2023-01-19T14:19:50.962Z,35.04
2023-01-19T14:22:17.666Z,35.02
2023-01-19T14:24:44.398Z,35.17
2023-01-19T14:27:19.139Z,34.10
2023-01-19T14:29:47.344Z,34.07
2023-01-19T14:32:20.851Z,35.02
2023-01-19T14:34:48.722Z,34.79
2023-01-19T14:37:19.718Z,35.17
2023-01-19T14:39:47.451Z,35.44
2023-01-19T14:42:17.362Z,34.88
2023-01-19T14:44:47.962Z,35.19
2023-01-19T14:47:22.947Z,35.41
2023-01-19T14:49:49.555Z,35.29
2023-01-19T14:52:25.161Z,35.07
2023-01-19T14:54:51.965Z,35.60
2023-01-19T14:57:18.548Z,35.70
2023-01-19T14:59:48.402Z,35.72
2023-01-19T15:02:15.242Z,35.72
2023-01-19T15:04:41.898Z,35.59
2023-01-19T15:07:11.369Z,35.90
2023-01-19T15:09:37.910Z,35.84
2023-01-19T15:12:04.523Z,35.82
2023-01-19T15:14:31.031Z,35.78
2023-01-19T15:16:57.835Z,35.72
2023-01-19T15:19:24.273Z,35.44
2023-01-19T15:21:51.235Z,35.66
2023-01-19T15:24:18.168Z,35.65
2023-01-19T15:26:44.692Z,36.09
2023-01-19T15:29:15.826Z,35.77
2023-01-19T15:31:42.390Z,35.56
2023-01-19T15:34:11.379Z,35.63
2023-01-19T15:36:37.870Z,35.83
2023-01-19T15:39:04.529Z,36.02
2023-01-19T15:41:31.096Z,35.72
2023-01-19T15:43:57.707Z,36.30
2023-01-19T15:46:25.226Z,35.88
2023-01-19T15:48:51.754Z,35.97
2023-01-19T15:51:22.625Z,36.02
2023-01-19T15:53:49.625Z,36.26
2023-01-19T15:56:20.352Z,35.96
2023-01-19T15:58:46.943Z,36.04
2023-01-19T16:01:14.499Z,36.36
2023-01-19T16:03:41.377Z,36.50
2023-01-19T16:06:08.792Z,36.57
2023-01-19T16:08:35.733Z,36.38
2023-01-19T16:11:06.001Z,36.51
2023-01-19T16:13:32.936Z,36.25
2023-01-19T16:16:04.273Z,36.18
2023-01-19T16:18:30.835Z,36.41
2023-01-19T16:20:57.533Z,36.54
2023-01-19T16:23:24.053Z,36.51
2023-01-19T16:26:17.652Z,36.66
2023-01-19T16:28:44.356Z,36.27
2023-01-19T16:31:10.792Z,36.37
2023-01-19T16:33:37.250Z,34.50
2023-01-19T16:36:23.060Z,34.58
2023-01-19T16:38:49.900Z,35.29
2023-01-19T16:41:17.106Z,35.17
2023-01-19T16:43:43.599Z,35.75
2023-01-19T16:46:16.997Z,35.94
2023-01-19T16:48:43.608Z,35.71
2023-01-19T16:51:10.047Z,36.16
2023-01-19T16:53:37.345Z,36.15
2023-01-19T16:56:04.611Z,36.50
2023-01-19T16:58:31.272Z,36.02
2023-01-19T17:00:57.813Z,36.16
2023-01-19T17:03:24.367Z,36.46
2023-01-19T17:05:52.135Z,36.43
2023-01-19T17:08:19.665Z,36.55
2023-01-19T17:10:47.011Z,36.68
2023-01-19T17:13:13.472Z,36.51
2023-01-19T17:15:40.014Z,36.75
2023-01-19T17:18:07.014Z,36.27
2023-01-19T17:20:33.916Z,36.86
2023-01-19T17:23:00.416Z,36.62
2023-01-19T17:25:26.871Z,36.45
2023-01-19T17:27:53.500Z,36.86
2023-01-19T17:30:20.588Z,36.22
2023-01-19T17:32:47.625Z,36.73
2023-01-19T17:35:14.113Z,36.94
2023-01-19T17:37:40.586Z,36.96
2023-01-19T17:40:07.474Z,36.92
2023-01-19T17:42:34.188Z,36.96
2023-01-19T17:45:00.648Z,37.08
2023-01-19T17:47:28.246Z,37.13
2023-01-19T17:49:54.717Z,36.83
2023-01-19T17:52:21.190Z,37.22
2023-01-19T17:54:47.848Z,37.14
2023-01-19T17:57:15.139Z,36.66
2023-01-19T17:59:43.919Z,37.06
2023-01-19T18:02:10.543Z,37.08
2023-01-19T18:04:38.264Z,36.50
2023-01-19T18:07:04.997Z,36.49
2023-01-19T18:09:31.544Z,36.68
2023-01-19T18:11:59.664Z,36.84
2023-01-19T18:14:26.169Z,36.64
2023-01-19T18:16:52.666Z,36.60
2023-01-19T18:19:22.106Z,36.64
2023-01-19T18:21:48.621Z,36.31
2023-01-19T18:24:15.759Z,36.44
2023-01-19T18:26:42.618Z,36.71
2023-01-19T18:29:09.107Z,36.24
2023-01-19T18:31:35.618Z,36.25
2023-01-19T18:34:02.244Z,36.28
2023-01-19T18:36:29.657Z,36.33
2023-01-19T18:38:56.395Z,36.09
2023-01-19T18:41:22.981Z,36.08
2023-01-19T18:43:49.552Z,36.42
2023-01-19T18:46:16.508Z,36.13
2023-01-19T18:48:43.284Z,36.06
2023-01-19T18:51:10.974Z,36.32
2023-01-19T18:53:37.669Z,35.82
2023-01-19T18:56:04.833Z,36.45
2023-01-19T18:58:32.429Z,36.12
2023-01-19T19:00:59.557Z,36.30
2023-01-19T19:03:26.929Z,35.90
2023-01-19T19:05:53.628Z,35.83
2023-01-19T19:08:20.068Z,36.03
2023-01-19T19:10:46.792Z,36.07
2023-01-19T19:13:14.144Z,35.82
2023-01-19T19:15:40.894Z,35.69
2023-01-19T19:18:08.941Z,35.59
2023-01-19T19:20:38.782Z,35.95
2023-01-19T19:23:05.233Z,35.55
2023-01-19T19:25:32.067Z,35.84
2023-01-19T19:27:58.935Z,35.85
2023-01-19T19:30:25.547Z,35.44
2023-01-19T19:32:56.108Z,35.72
2023-01-19T19:35:23.152Z,35.60
2023-01-19T19:37:49.596Z,35.71
2023-01-19T19:40:16.725Z,35.63
2023-01-19T19:42:43.872Z,35.64
2023-01-19T19:45:10.876Z,35.76
2023-01-19T19:47:37.367Z,35.22
2023-01-19T19:50:03.871Z,35.39
2023-01-19T19:52:30.415Z,35.39
2023-01-19T19:54:56.964Z,35.46
2023-01-19T19:57:24.111Z,35.45
2023-01-19T19:59:50.618Z,35.24
2023-01-19T20:02:17.576Z,35.45
2023-01-19T20:04:44.954Z,35.37
2023-01-19T20:07:11.466Z,35.25
2023-01-19T20:09:37.950Z,35.14
2023-01-19T20:12:04.844Z,35.20
2023-01-19T20:14:31.519Z,35.16
2023-01-19T20:16:57.996Z,34.94
2023-01-19T20:19:24.559Z,34.93
2023-01-19T20:21:51.015Z,35.24
2023-01-19T20:24:18.299Z,34.98
2023-01-19T20:26:50.332Z,35.12
2023-01-19T20:29:17.052Z,35.09
2023-01-19T20:31:45.276Z,35.09
2023-01-19T20:34:12.542Z,34.98
2023-01-19T20:36:39.330Z,34.98
2023-01-19T20:39:08.435Z,34.83
2023-01-19T20:41:35.989Z,34.98
2023-01-19T20:44:02.474Z,34.79
2023-01-19T20:46:28.994Z,34.85
2023-01-19T20:48:55.826Z,34.91
2023-01-19T20:51:22.983Z,34.84
2023-01-19T20:53:49.621Z,34.88
2023-01-19T20:56:16.305Z,34.61
2023-01-19T20:58:42.964Z,34.62
2023-01-19T21:01:10.812Z,34.63
2023-01-19T21:03:37.569Z,34.76
2023-01-19T21:06:04.457Z,34.76
2023-01-19T21:08:30.931Z,34.54
2023-01-19T21:10:57.497Z,34.68
2023-01-19T21:13:24.492Z,34.64
2023-01-19T21:15:51.043Z,34.61
2023-01-19T21:18:17.811Z,34.50
2023-01-19T21:20:44.977Z,34.65
2023-01-19T21:23:11.508Z,34.49
2023-01-19T21:25:38.252Z,34.61
2023-01-19T21:28:05.614Z,34.59
2023-01-19T21:30:32.086Z,34.47
2023-01-19T21:32:58.656Z,34.28
2023-01-19T21:35:25.229Z,34.42
2023-01-19T21:37:51.744Z,34.53
2023-01-19T21:40:18.448Z,34.19
2023-01-19T21:42:44.927Z,34.24
2023-01-19T21:45:11.633Z,34.39
2023-01-19T21:47:38.476Z,34.36
2023-01-19T21:50:05.048Z,34.26
2023-01-19T21:52:31.660Z,34.15
2023-01-19T21:54:58.172Z,34.34
2023-01-19T21:57:24.654Z,34.27
2023-01-19T21:59:51.086Z,34.60
2023-01-19T22:02:29.857Z,34.31
2023-01-19T22:05:06.396Z,34.47
2023-01-19T22:07:33.111Z,34.42
2023-01-19T22:09:59.624Z,34.57
2023-01-19T22:12:26.059Z,34.62
2023-01-19T22:14:52.591Z,34.47
2023-01-19T22:17:19.026Z,34.56
2023-01-19T22:19:45.854Z,34.60
2023-01-19T22:22:12.483Z,34.68
2023-01-19T22:24:39.336Z,34.75
2023-01-19T22:27:05.965Z,34.56
2023-01-19T22:29:32.448Z,34.66
2023-01-19T22:31:58.905Z,34.83
2023-01-19T22:34:26.396Z,34.89
2023-01-19T22:36:53.070Z,34.92
2023-01-19T22:39:19.725Z,34.83
2023-01-19T22:41:46.565Z,34.98
2023-01-19T22:44:14.601Z,35.03
2023-01-19T22:46:41.230Z,35.00
2023-01-19T22:49:08.429Z,34.70
2023-01-19T22:51:35.568Z,34.85
2023-01-19T22:54:02.298Z,34.99
2023-01-19T22:56:29.370Z,34.97
2023-01-19T22:58:56.030Z,35.02
2023-01-19T23:01:23.721Z,35.25
2023-01-19T23:03:50.482Z,35.20
2023-01-19T23:06:18.210Z,35.09
2023-01-19T23:08:44.849Z,35.48
2023-01-19T23:11:15.048Z,35.31
2023-01-19T23:13:41.756Z,35.26
2023-01-19T23:16:08.971Z,35.37
2023-01-19T23:18:36.090Z,35.54
2023-01-19T23:21:03.492Z,35.41
2023-01-19T23:23:30.639Z,35.51
2023-01-19T23:26:03.956Z,35.48
2023-01-19T23:28:31.310Z,35.65
2023-01-19T23:30:57.830Z,35.63
2023-01-19T23:33:24.448Z,35.30
2023-01-19T23:35:50.972Z,35.66
2023-01-19T23:38:17.580Z,35.27
2023-01-19T23:40:44.057Z,35.59
2023-01-19T23:43:10.589Z,35.61
2023-01-19T23:45:37.105Z,35.44
2023-01-19T23:48:04.071Z,35.61
2023-01-19T23:50:30.529Z,35.90
2023-01-19T23:52:57.192Z,35.84
2023-01-19T23:55:23.860Z,35.70
2023-01-19T23:57:50.700Z,36.02
